sensor_id;sensor_type;location;lat;lon;timestamp;P1;durP1;ratioP1;P2;durP2;ratioP2
17524;SDS011;40431;52.198;9.902;2022-08-18T00:01:37;5.70;;;5.10;;
17524;SDS011;40431;52.198;9.902;2022-08-18T00:04:04;5.50;;;5.10;;
17524;SDS011;40431;52.198;9.902;2022-08-18T00:06:31;5.40;;;5.10;;
17524;SDS011;40431;52.198;9.902;2022-08-18T00:08:58;5.60;;;5.20;;
17524;SDS011;40431;52.198;9.902;2022-08-18T00:11:28;6.37;;;5.87;;
17524;SDS011;40431;52.198;9.902;2022-08-18T00:13:56;5.63;;;5.23;;
17524;SDS011;40431;52.198;9.902;2022-08-18T00:16:22;5.53;;;5.23;;
17524;SDS011;40431;52.198;9.902;2022-08-18T00:18:49;8.57;;;5.23;;
17524;SDS011;40431;52.198;9.902;2022-08-18T00:21:15;6.70;;;6.23;;
17524;SDS011;40431;52.198;9.902;2022-08-18T00:23:42;8.30;;;7.70;;
17524;SDS011;40431;52.198;9.902;2022-08-18T00:26:08;8.50;;;7.77;;
17524;SDS011;40431;52.198;9.902;2022-08-18T00:28:37;7.77;;;7.17;;
17524;SDS011;40431;52.198;9.902;2022-08-18T00:31:04;7.33;;;6.73;;
17524;SDS011;40431;52.198;9.902;2022-08-18T00:33:31;8.80;;;8.00;;
17524;SDS011;40431;52.198;9.902;2022-08-18T00:35:58;9.37;;;8.67;;
17524;SDS011;40431;52.198;9.902;2022-08-18T00:38:24;9.50;;;8.80;;
17524;SDS011;40431;52.198;9.902;2022-08-18T00:40:51;9.97;;;9.17;;
17524;SDS011;40431;52.198;9.902;2022-08-18T00:43:19;10.17;;;9.50;;
17524;SDS011;40431;52.198;9.902;2022-08-18T00:45:51;10.30;;;9.30;;
17524;SDS011;40431;52.198;9.902;2022-08-18T00:48:17;14.73;;;10.90;;
17524;SDS011;40431;52.198;9.902;2022-08-18T00:50:45;10.87;;;9.83;;
17524;SDS011;40431;52.198;9.902;2022-08-18T00:53:17;11.17;;;10.33;;
17524;SDS011;40431;52.198;9.902;2022-08-18T00:55:50;11.60;;;10.87;;
17524;SDS011;40431;52.198;9.902;2022-08-18T00:58:19;11.90;;;10.90;;
17524;SDS011;40431;52.198;9.902;2022-08-18T01:00:51;11.87;;;10.77;;
17524;SDS011;40431;52.198;9.902;2022-08-18T01:03:18;12.30;;;11.50;;
17524;SDS011;40431;52.198;9.902;2022-08-18T01:05:46;12.63;;;11.70;;
17524;SDS011;40431;52.198;9.902;2022-08-18T01:08:17;13.50;;;12.40;;
17524;SDS011;40431;52.198;9.902;2022-08-18T01:10:44;13.80;;;12.80;;
17524;SDS011;40431;52.198;9.902;2022-08-18T01:13:10;14.63;;;13.50;;
17524;SDS011;40431;52.198;9.902;2022-08-18T01:15:37;14.43;;;13.20;;
17524;SDS011;40431;52.198;9.902;2022-08-18T01:18:05;14.30;;;13.27;;
17524;SDS011;40431;52.198;9.902;2022-08-18T01:20:54;16.17;;;14.83;;
17524;SDS011;40431;52.198;9.902;2022-08-18T01:23:48;15.07;;;14.07;;
17524;SDS011;40431;52.198;9.902;2022-08-18T01:26:16;15.83;;;14.63;;
17524;SDS011;40431;52.198;9.902;2022-08-18T01:28:44;17.83;;;16.53;;
17524;SDS011;40431;52.198;9.902;2022-08-18T01:31:12;18.70;;;17.03;;
17524;SDS011;40431;52.198;9.902;2022-08-18T01:33:53;18.30;;;16.83;;
17524;SDS011;40431;52.198;9.902;2022-08-18T01:36:21;18.87;;;17.47;;
17524;SDS011;40431;52.198;9.902;2022-08-18T01:38:50;19.30;;;18.00;;
17524;SDS011;40431;52.198;9.902;2022-08-18T01:41:18;19.00;;;17.47;;
17524;SDS011;40431;52.198;9.902;2022-08-18T01:43:45;19.10;;;17.57;;
17524;SDS011;40431;52.198;9.902;2022-08-18T01:46:12;17.97;;;16.67;;
17524;SDS011;40431;52.198;9.902;2022-08-18T01:48:38;19.27;;;17.77;;
17524;SDS011;40431;52.198;9.902;2022-08-18T01:51:06;19.83;;;18.43;;
17524;SDS011;40431;52.198;9.902;2022-08-18T01:53:34;19.23;;;17.83;;
17524;SDS011;40431;52.198;9.902;2022-08-18T01:56:03;21.80;;;20.30;;
17524;SDS011;40431;52.198;9.902;2022-08-18T01:58:30;25.00;;;22.80;;
17524;SDS011;40431;52.198;9.902;2022-08-18T02:00:56;24.00;;;22.23;;
17524;SDS011;40431;52.198;9.902;2022-08-18T02:03:27;25.63;;;23.73;;
17524;SDS011;40431;52.198;9.902;2022-08-18T02:05:59;26.03;;;24.10;;
17524;SDS011;40431;52.198;9.902;2022-08-18T02:08:27;27.23;;;24.73;;
17524;SDS011;40431;52.198;9.902;2022-08-18T02:10:54;26.27;;;24.23;;
17524;SDS011;40431;52.198;9.902;2022-08-18T02:13:24;28.77;;;26.40;;
17524;SDS011;40431;52.198;9.902;2022-08-18T02:15:50;27.87;;;25.83;;
17524;SDS011;40431;52.198;9.902;2022-08-18T02:18:18;31.27;;;28.47;;
17524;SDS011;40431;52.198;9.902;2022-08-18T02:20:53;29.47;;;27.03;;
17524;SDS011;40431;52.198;9.902;2022-08-18T02:23:20;30.43;;;28.03;;
17524;SDS011;40431;52.198;9.902;2022-08-18T02:25:46;28.77;;;26.57;;
17524;SDS011;40431;52.198;9.902;2022-08-18T02:28:13;31.17;;;28.80;;
17524;SDS011;40431;52.198;9.902;2022-08-18T02:30:41;32.37;;;29.73;;
17524;SDS011;40431;52.198;9.902;2022-08-18T02:33:09;34.50;;;31.60;;
17524;SDS011;40431;52.198;9.902;2022-08-18T02:35:36;33.40;;;30.43;;
17524;SDS011;40431;52.198;9.902;2022-08-18T02:38:03;34.53;;;31.47;;
17524;SDS011;40431;52.198;9.902;2022-08-18T02:40:32;34.40;;;31.23;;
17524;SDS011;40431;52.198;9.902;2022-08-18T02:43:03;34.37;;;31.33;;
17524;SDS011;40431;52.198;9.902;2022-08-18T02:45:30;33.43;;;30.20;;
17524;SDS011;40431;52.198;9.902;2022-08-18T02:47:58;34.37;;;31.27;;
17524;SDS011;40431;52.198;9.902;2022-08-18T02:50:25;35.17;;;31.90;;
17524;SDS011;40431;52.198;9.902;2022-08-18T02:52:51;35.53;;;31.93;;
17524;SDS011;40431;52.198;9.902;2022-08-18T02:55:18;34.10;;;31.07;;
17524;SDS011;40431;52.198;9.902;2022-08-18T02:57:46;34.93;;;31.93;;
17524;SDS011;40431;52.198;9.902;2022-08-18T03:00:15;35.70;;;32.73;;
17524;SDS011;40431;52.198;9.902;2022-08-18T03:02:44;37.47;;;33.83;;
17524;SDS011;40431;52.198;9.902;2022-08-18T03:05:13;37.57;;;34.27;;
17524;SDS011;40431;52.198;9.902;2022-08-18T03:07:40;39.37;;;35.60;;
17524;SDS011;40431;52.198;9.902;2022-08-18T03:10:07;37.67;;;34.27;;
17524;SDS011;40431;52.198;9.902;2022-08-18T03:12:34;38.97;;;34.00;;
17524;SDS011;40431;52.198;9.902;2022-08-18T03:15:00;40.10;;;36.13;;
17524;SDS011;40431;52.198;9.902;2022-08-18T03:17:27;40.63;;;36.77;;
17524;SDS011;40431;52.198;9.902;2022-08-18T03:19:55;41.07;;;35.83;;
17524;SDS011;40431;52.198;9.902;2022-08-18T03:22:23;40.60;;;36.47;;
17524;SDS011;40431;52.198;9.902;2022-08-18T03:24:49;42.83;;;38.37;;
17524;SDS011;40431;52.198;9.902;2022-08-18T03:27:16;40.63;;;36.53;;
17524;SDS011;40431;52.198;9.902;2022-08-18T03:29:42;42.87;;;38.23;;
17524;SDS011;40431;52.198;9.902;2022-08-18T03:32:09;43.57;;;39.47;;
17524;SDS011;40431;52.198;9.902;2022-08-18T03:34:35;42.73;;;38.43;;
17524;SDS011;40431;52.198;9.902;2022-08-18T03:37:01;43.90;;;39.20;;
17524;SDS011;40431;52.198;9.902;2022-08-18T03:39:29;42.17;;;37.80;;
17524;SDS011;40431;52.198;9.902;2022-08-18T03:41:56;42.30;;;38.00;;
17524;SDS011;40431;52.198;9.902;2022-08-18T03:44:23;45.20;;;40.47;;
17524;SDS011;40431;52.198;9.902;2022-08-18T03:46:50;43.43;;;38.77;;
17524;SDS011;40431;52.198;9.902;2022-08-18T03:49:17;44.37;;;39.97;;
17524;SDS011;40431;52.198;9.902;2022-08-18T03:51:45;43.87;;;39.47;;
17524;SDS011;40431;52.198;9.902;2022-08-18T03:54:12;43.13;;;38.53;;
17524;SDS011;40431;52.198;9.902;2022-08-18T03:56:42;42.83;;;38.37;;
17524;SDS011;40431;52.198;9.902;2022-08-18T03:59:12;43.93;;;39.33;;
17524;SDS011;40431;52.198;9.902;2022-08-18T04:01:41;44.10;;;39.57;;
17524;SDS011;40431;52.198;9.902;2022-08-18T04:04:09;43.97;;;39.60;;
17524;SDS011;40431;52.198;9.902;2022-08-18T04:06:39;45.97;;;41.43;;
17524;SDS011;40431;52.198;9.902;2022-08-18T04:09:09;49.07;;;43.03;;
17524;SDS011;40431;52.198;9.902;2022-08-18T04:11:38;43.07;;;38.80;;
17524;SDS011;40431;52.198;9.902;2022-08-18T04:14:09;44.40;;;40.00;;
17524;SDS011;40431;52.198;9.902;2022-08-18T04:16:36;44.57;;;39.93;;
17524;SDS011;40431;52.198;9.902;2022-08-18T04:19:03;47.13;;;42.37;;
17524;SDS011;40431;52.198;9.902;2022-08-18T04:21:30;45.13;;;40.67;;
17524;SDS011;40431;52.198;9.902;2022-08-18T04:23:58;43.63;;;39.10;;
17524;SDS011;40431;52.198;9.902;2022-08-18T04:26:26;45.50;;;40.70;;
17524;SDS011;40431;52.198;9.902;2022-08-18T04:28:53;45.63;;;41.13;;
17524;SDS011;40431;52.198;9.902;2022-08-18T04:31:21;46.43;;;41.70;;
17524;SDS011;40431;52.198;9.902;2022-08-18T04:33:48;42.10;;;38.17;;
17524;SDS011;40431;52.198;9.902;2022-08-18T04:36:15;44.87;;;40.33;;
17524;SDS011;40431;52.198;9.902;2022-08-18T04:38:42;44.37;;;39.80;;
17524;SDS011;40431;52.198;9.902;2022-08-18T04:41:09;43.03;;;38.80;;
17524;SDS011;40431;52.198;9.902;2022-08-18T04:43:36;42.53;;;38.37;;
17524;SDS011;40431;52.198;9.902;2022-08-18T04:46:03;44.73;;;40.07;;
17524;SDS011;40431;52.198;9.902;2022-08-18T04:48:32;43.73;;;39.13;;
17524;SDS011;40431;52.198;9.902;2022-08-18T04:51:04;44.07;;;39.60;;
17524;SDS011;40431;52.198;9.902;2022-08-18T04:53:32;41.30;;;37.30;;
17524;SDS011;40431;52.198;9.902;2022-08-18T04:56:12;43.97;;;39.27;;
17524;SDS011;40431;52.198;9.902;2022-08-18T04:58:41;46.47;;;41.77;;
17524;SDS011;40431;52.198;9.902;2022-08-18T05:01:08;44.20;;;39.80;;
17524;SDS011;40431;52.198;9.902;2022-08-18T05:03:36;45.63;;;40.93;;
17524;SDS011;40431;52.198;9.902;2022-08-18T05:06:03;46.10;;;41.33;;
17524;SDS011;40431;52.198;9.902;2022-08-18T05:08:31;48.17;;;43.23;;
17524;SDS011;40431;52.198;9.902;2022-08-18T05:10:57;48.53;;;43.40;;
17524;SDS011;40431;52.198;9.902;2022-08-18T05:13:24;47.80;;;42.80;;
17524;SDS011;40431;52.198;9.902;2022-08-18T05:15:53;46.87;;;41.83;;
17524;SDS011;40431;52.198;9.902;2022-08-18T05:18:20;49.13;;;43.90;;
17524;SDS011;40431;52.198;9.902;2022-08-18T05:20:49;47.67;;;42.87;;
17524;SDS011;40431;52.198;9.902;2022-08-18T05:23:16;48.27;;;43.27;;
17524;SDS011;40431;52.198;9.902;2022-08-18T05:25:43;48.43;;;43.60;;
17524;SDS011;40431;52.198;9.902;2022-08-18T05:28:10;49.27;;;43.90;;
17524;SDS011;40431;52.198;9.902;2022-08-18T05:30:38;47.40;;;42.63;;
17524;SDS011;40431;52.198;9.902;2022-08-18T05:33:05;49.87;;;44.87;;
17524;SDS011;40431;52.198;9.902;2022-08-18T05:35:36;48.43;;;43.53;;
17524;SDS011;40431;52.198;9.902;2022-08-18T05:38:15;45.83;;;41.07;;
17524;SDS011;40431;52.198;9.902;2022-08-18T05:41:05;46.10;;;41.50;;
17524;SDS011;40431;52.198;9.902;2022-08-18T05:43:34;47.80;;;42.70;;
17524;SDS011;40431;52.198;9.902;2022-08-18T05:46:02;47.27;;;42.07;;
17524;SDS011;40431;52.198;9.902;2022-08-18T05:48:32;47.73;;;42.87;;
17524;SDS011;40431;52.198;9.902;2022-08-18T05:51:00;46.97;;;41.83;;
17524;SDS011;40431;52.198;9.902;2022-08-18T05:53:36;46.13;;;41.57;;
17524;SDS011;40431;52.198;9.902;2022-08-18T05:56:22;42.97;;;38.87;;
17524;SDS011;40431;52.198;9.902;2022-08-18T05:59:09;43.90;;;39.27;;
17524;SDS011;40431;52.198;9.902;2022-08-18T06:01:38;44.43;;;40.00;;
17524;SDS011;40431;52.198;9.902;2022-08-18T06:04:12;42.40;;;38.13;;
17524;SDS011;40431;52.198;9.902;2022-08-18T06:06:44;44.47;;;40.00;;
17524;SDS011;40431;52.198;9.902;2022-08-18T06:09:15;42.37;;;38.27;;
17524;SDS011;40431;52.198;9.902;2022-08-18T06:11:45;43.93;;;39.67;;
17524;SDS011;40431;52.198;9.902;2022-08-18T06:14:11;45.17;;;40.57;;
17524;SDS011;40431;52.198;9.902;2022-08-18T06:16:41;43.77;;;39.47;;
17524;SDS011;40431;52.198;9.902;2022-08-18T06:19:28;39.97;;;36.20;;
17524;SDS011;40431;52.198;9.902;2022-08-18T06:22:07;41.70;;;37.93;;
17524;SDS011;40431;52.198;9.902;2022-08-18T06:24:45;38.13;;;34.63;;
17524;SDS011;40431;52.198;9.902;2022-08-18T06:27:20;41.03;;;36.83;;
17524;SDS011;40431;52.198;9.902;2022-08-18T06:29:59;40.97;;;37.07;;
17524;SDS011;40431;52.198;9.902;2022-08-18T06:32:40;38.30;;;34.67;;
17524;SDS011;40431;52.198;9.902;2022-08-18T06:35:24;39.07;;;35.27;;
17524;SDS011;40431;52.198;9.902;2022-08-18T06:37:59;39.47;;;35.57;;
17524;SDS011;40431;52.198;9.902;2022-08-18T06:41:00;39.17;;;35.57;;
17524;SDS011;40431;52.198;9.902;2022-08-18T06:43:28;39.53;;;35.87;;
17524;SDS011;40431;52.198;9.902;2022-08-18T06:45:58;40.73;;;36.77;;
17524;SDS011;40431;52.198;9.902;2022-08-18T06:48:26;39.90;;;36.27;;
17524;SDS011;40431;52.198;9.902;2022-08-18T06:51:02;40.87;;;36.90;;
17524;SDS011;40431;52.198;9.902;2022-08-18T06:56:24;38.97;;;35.50;;
17524;SDS011;40431;52.198;9.902;2022-08-18T06:58:53;41.57;;;37.53;;
17524;SDS011;40431;52.198;9.902;2022-08-18T07:01:20;40.70;;;36.77;;
17524;SDS011;40431;52.198;9.902;2022-08-18T07:03:49;38.73;;;35.03;;
17524;SDS011;40431;52.198;9.902;2022-08-18T07:06:29;39.20;;;35.67;;
17524;SDS011;40431;52.198;9.902;2022-08-18T07:11:57;34.67;;;31.80;;
17524;SDS011;40431;52.198;9.902;2022-08-18T07:14:30;37.10;;;33.83;;
17524;SDS011;40431;52.198;9.902;2022-08-18T07:17:07;36.97;;;33.60;;
17524;SDS011;40431;52.198;9.902;2022-08-18T07:19:35;37.67;;;34.27;;
17524;SDS011;40431;52.198;9.902;2022-08-18T07:22:04;36.13;;;33.03;;
17524;SDS011;40431;52.198;9.902;2022-08-18T07:24:33;35.20;;;32.00;;
17524;SDS011;40431;52.198;9.902;2022-08-18T07:27:06;35.93;;;32.53;;
17524;SDS011;40431;52.198;9.902;2022-08-18T07:29:35;32.63;;;30.07;;
17524;SDS011;40431;52.198;9.902;2022-08-18T07:32:03;33.07;;;30.37;;
17524;SDS011;40431;52.198;9.902;2022-08-18T07:34:36;33.43;;;30.40;;
17524;SDS011;40431;52.198;9.902;2022-08-18T07:37:07;34.90;;;32.13;;
17524;SDS011;40431;52.198;9.902;2022-08-18T07:39:42;33.23;;;30.47;;
17524;SDS011;40431;52.198;9.902;2022-08-18T07:42:16;31.90;;;29.13;;
17524;SDS011;40431;52.198;9.902;2022-08-18T07:44:52;32.00;;;29.50;;
17524;SDS011;40431;52.198;9.902;2022-08-18T07:47:25;33.47;;;30.33;;
17524;SDS011;40431;52.198;9.902;2022-08-18T07:49:57;30.27;;;27.97;;
17524;SDS011;40431;52.198;9.902;2022-08-18T07:52:24;31.33;;;29.03;;
17524;SDS011;40431;52.198;9.902;2022-08-18T07:54:56;32.00;;;29.50;;
17524;SDS011;40431;52.198;9.902;2022-08-18T07:57:44;32.17;;;29.20;;
17524;SDS011;40431;52.198;9.902;2022-08-18T08:00:19;30.23;;;27.87;;
17524;SDS011;40431;52.198;9.902;2022-08-18T08:02:51;32.33;;;29.63;;
17524;SDS011;40431;52.198;9.902;2022-08-18T08:05:33;30.07;;;27.63;;
17524;SDS011;40431;52.198;9.902;2022-08-18T08:08:05;31.63;;;28.87;;
17524;SDS011;40431;52.198;9.902;2022-08-18T08:10:49;29.73;;;27.53;;
17524;SDS011;40431;52.198;9.902;2022-08-18T08:13:44;30.27;;;27.97;;
17524;SDS011;40431;52.198;9.902;2022-08-18T08:16:19;31.03;;;28.70;;
17524;SDS011;40431;52.198;9.902;2022-08-18T08:18:53;28.77;;;26.67;;
17524;SDS011;40431;52.198;9.902;2022-08-18T08:21:28;29.53;;;27.30;;
17524;SDS011;40431;52.198;9.902;2022-08-18T08:24:00;27.57;;;25.43;;
17524;SDS011;40431;52.198;9.902;2022-08-18T08:26:41;27.40;;;25.40;;
17524;SDS011;40431;52.198;9.902;2022-08-18T08:29:19;29.60;;;27.37;;
17524;SDS011;40431;52.198;9.902;2022-08-18T08:32:10;27.57;;;25.60;;
17524;SDS011;40431;52.198;9.902;2022-08-18T08:34:40;26.00;;;24.10;;
17524;SDS011;40431;52.198;9.902;2022-08-18T08:37:14;25.97;;;24.27;;
17524;SDS011;40431;52.198;9.902;2022-08-18T08:39:45;28.60;;;26.50;;
17524;SDS011;40431;52.198;9.902;2022-08-18T08:42:15;27.60;;;25.67;;
17524;SDS011;40431;52.198;9.902;2022-08-18T08:44:50;28.20;;;26.00;;
17524;SDS011;40431;52.198;9.902;2022-08-18T08:47:22;34.30;;;31.50;;
17524;SDS011;40431;52.198;9.902;2022-08-18T08:49:52;35.60;;;32.47;;
17524;SDS011;40431;52.198;9.902;2022-08-18T08:52:22;36.63;;;33.63;;
17524;SDS011;40431;52.198;9.902;2022-08-18T08:54:52;34.30;;;31.40;;
17524;SDS011;40431;52.198;9.902;2022-08-18T08:57:25;33.73;;;30.90;;
17524;SDS011;40431;52.198;9.902;2022-08-18T08:59:57;33.50;;;30.90;;
17524;SDS011;40431;52.198;9.902;2022-08-18T09:02:30;31.77;;;29.00;;
17524;SDS011;40431;52.198;9.902;2022-08-18T09:05:10;29.90;;;27.67;;
17524;SDS011;40431;52.198;9.902;2022-08-18T09:07:56;33.10;;;30.20;;
17524;SDS011;40431;52.198;9.902;2022-08-18T09:10:50;35.23;;;32.20;;
17524;SDS011;40431;52.198;9.902;2022-08-18T09:13:46;33.00;;;30.23;;
17524;SDS011;40431;52.198;9.902;2022-08-18T09:16:33;33.47;;;30.20;;
17524;SDS011;40431;52.198;9.902;2022-08-18T09:19:11;34.43;;;31.40;;
17524;SDS011;40431;52.198;9.902;2022-08-18T09:21:52;31.97;;;29.37;;
17524;SDS011;40431;52.198;9.902;2022-08-18T09:24:26;32.87;;;30.07;;
17524;SDS011;40431;52.198;9.902;2022-08-18T09:27:10;31.70;;;29.10;;
17524;SDS011;40431;52.198;9.902;2022-08-18T09:29:47;32.87;;;30.00;;
17524;SDS011;40431;52.198;9.902;2022-08-18T09:35:24;31.93;;;29.30;;
17524;SDS011;40431;52.198;9.902;2022-08-18T09:38:06;30.73;;;28.20;;
17524;SDS011;40431;52.198;9.902;2022-08-18T09:40:53;29.43;;;27.17;;
17524;SDS011;40431;52.198;9.902;2022-08-18T09:43:51;29.07;;;26.87;;
17524;SDS011;40431;52.198;9.902;2022-08-18T09:46:50;26.07;;;24.00;;
17524;SDS011;40431;52.198;9.902;2022-08-18T10:01:33;30.27;;;27.70;;
17524;SDS011;40431;52.198;9.902;2022-08-18T10:07:14;28.40;;;26.40;;
17524;SDS011;40431;52.198;9.902;2022-08-18T10:09:45;29.47;;;27.37;;
17524;SDS011;40431;52.198;9.902;2022-08-18T10:12:31;26.50;;;24.50;;
17524;SDS011;40431;52.198;9.902;2022-08-18T10:18:00;25.67;;;23.77;;
17524;SDS011;40431;52.198;9.902;2022-08-18T10:20:41;24.53;;;22.73;;
17524;SDS011;40431;52.198;9.902;2022-08-18T10:29:41;23.50;;;21.60;;
17524;SDS011;40431;52.198;9.902;2022-08-18T10:38:39;24.43;;;22.73;;
17524;SDS011;40431;52.198;9.902;2022-08-18T10:41:23;22.73;;;20.90;;
17524;SDS011;40431;52.198;9.902;2022-08-18T10:43:53;22.17;;;20.70;;
17524;SDS011;40431;52.198;9.902;2022-08-18T10:46:23;21.53;;;20.03;;
17524;SDS011;40431;52.198;9.902;2022-08-18T10:51:59;21.33;;;19.70;;
17524;SDS011;40431;52.198;9.902;2022-08-18T10:54:47;20.93;;;19.53;;
17524;SDS011;40431;52.198;9.902;2022-08-18T10:57:42;18.37;;;17.17;;
17524;SDS011;40431;52.198;9.902;2022-08-18T11:00:43;20.67;;;19.17;;
17524;SDS011;40431;52.198;9.902;2022-08-18T11:03:20;18.87;;;17.57;;
17524;SDS011;40431;52.198;9.902;2022-08-18T11:06:02;18.10;;;16.90;;
17524;SDS011;40431;52.198;9.902;2022-08-18T11:08:30;19.93;;;18.53;;
17524;SDS011;40431;52.198;9.902;2022-08-18T11:11:05;21.67;;;19.97;;
17524;SDS011;40431;52.198;9.902;2022-08-18T11:13:46;21.80;;;20.40;;
17524;SDS011;40431;52.198;9.902;2022-08-18T11:16:24;20.03;;;18.53;;
17524;SDS011;40431;52.198;9.902;2022-08-18T11:19:02;19.10;;;17.90;;
17524;SDS011;40431;52.198;9.902;2022-08-18T11:21:36;20.80;;;19.30;;
17524;SDS011;40431;52.198;9.902;2022-08-18T11:24:09;19.50;;;18.27;;
17524;SDS011;40431;52.198;9.902;2022-08-18T11:26:40;18.67;;;17.40;;
17524;SDS011;40431;52.198;9.902;2022-08-18T11:32:02;18.67;;;17.37;;
17524;SDS011;40431;52.198;9.902;2022-08-18T11:34:34;16.67;;;15.43;;
17524;SDS011;40431;52.198;9.902;2022-08-18T11:37:04;18.00;;;16.47;;
17524;SDS011;40431;52.198;9.902;2022-08-18T11:39:33;17.40;;;16.10;;
17524;SDS011;40431;52.198;9.902;2022-08-18T11:42:08;20.27;;;18.77;;
17524;SDS011;40431;52.198;9.902;2022-08-18T11:44:36;19.30;;;17.83;;
17524;SDS011;40431;52.198;9.902;2022-08-18T11:47:09;16.60;;;15.43;;
17524;SDS011;40431;52.198;9.902;2022-08-18T11:49:52;16.07;;;14.97;;
17524;SDS011;40431;52.198;9.902;2022-08-18T11:52:23;18.87;;;17.60;;
17524;SDS011;40431;52.198;9.902;2022-08-18T11:54:56;18.70;;;17.40;;
17524;SDS011;40431;52.198;9.902;2022-08-18T12:00:41;13.20;;;12.40;;
17524;SDS011;40431;52.198;9.902;2022-08-18T12:03:19;15.13;;;14.23;;
17524;SDS011;40431;52.198;9.902;2022-08-18T12:05:52;14.90;;;13.90;;
17524;SDS011;40431;52.198;9.902;2022-08-18T12:08:22;13.47;;;12.60;;
17524;SDS011;40431;52.198;9.902;2022-08-18T12:11:01;14.03;;;13.13;;
17524;SDS011;40431;52.198;9.902;2022-08-18T12:13:29;13.40;;;12.47;;
17524;SDS011;40431;52.198;9.902;2022-08-18T12:18:40;14.73;;;13.80;;
17524;SDS011;40431;52.198;9.902;2022-08-18T12:21:07;12.77;;;11.80;;
17524;SDS011;40431;52.198;9.902;2022-08-18T12:23:36;14.33;;;13.20;;
17524;SDS011;40431;52.198;9.902;2022-08-18T12:26:05;11.70;;;11.00;;
17524;SDS011;40431;52.198;9.902;2022-08-18T12:28:32;13.80;;;12.77;;
17524;SDS011;40431;52.198;9.902;2022-08-18T12:30:58;13.97;;;13.07;;
17524;SDS011;40431;52.198;9.902;2022-08-18T12:33:26;13.83;;;12.93;;
17524;SDS011;40431;52.198;9.902;2022-08-18T12:35:52;12.50;;;11.60;;
17524;SDS011;40431;52.198;9.902;2022-08-18T12:38:19;12.73;;;11.93;;
17524;SDS011;40431;52.198;9.902;2022-08-18T12:40:47;12.50;;;11.60;;
17524;SDS011;40431;52.198;9.902;2022-08-18T12:43:13;14.43;;;12.77;;
17524;SDS011;40431;52.198;9.902;2022-08-18T12:45:40;11.90;;;10.93;;
17524;SDS011;40431;52.198;9.902;2022-08-18T12:48:07;10.93;;;10.10;;
17524;SDS011;40431;52.198;9.902;2022-08-18T12:50:35;11.40;;;10.33;;
17524;SDS011;40431;52.198;9.902;2022-08-18T12:53:03;11.13;;;10.43;;
17524;SDS011;40431;52.198;9.902;2022-08-18T12:55:30;11.33;;;10.53;;
17524;SDS011;40431;52.198;9.902;2022-08-18T12:58:00;10.80;;;10.10;;
17524;SDS011;40431;52.198;9.902;2022-08-18T13:00:27;11.90;;;10.70;;
17524;SDS011;40431;52.198;9.902;2022-08-18T13:02:54;12.30;;;10.40;;
17524;SDS011;40431;52.198;9.902;2022-08-18T13:05:20;12.87;;;12.07;;
17524;SDS011;40431;52.198;9.902;2022-08-18T13:07:48;12.73;;;11.23;;
17524;SDS011;40431;52.198;9.902;2022-08-18T13:10:16;11.37;;;10.63;;
17524;SDS011;40431;52.198;9.902;2022-08-18T13:12:42;10.10;;;9.40;;
17524;SDS011;40431;52.198;9.902;2022-08-18T13:15:09;10.33;;;9.70;;
17524;SDS011;40431;52.198;9.902;2022-08-18T13:17:36;9.90;;;9.30;;
17524;SDS011;40431;52.198;9.902;2022-08-18T13:20:05;10.27;;;9.47;;
17524;SDS011;40431;52.198;9.902;2022-08-18T13:22:34;9.17;;;8.33;;
17524;SDS011;40431;52.198;9.902;2022-08-18T13:25:03;9.43;;;8.57;;
17524;SDS011;40431;52.198;9.902;2022-08-18T13:27:31;10.40;;;9.77;;
17524;SDS011;40431;52.198;9.902;2022-08-18T13:29:57;10.97;;;10.07;;
17524;SDS011;40431;52.198;9.902;2022-08-18T13:32:23;9.10;;;8.47;;
17524;SDS011;40431;52.198;9.902;2022-08-18T13:34:51;9.73;;;9.03;;
17524;SDS011;40431;52.198;9.902;2022-08-18T13:37:17;9.50;;;8.80;;
17524;SDS011;40431;52.198;9.902;2022-08-18T13:39:44;10.03;;;9.40;;
17524;SDS011;40431;52.198;9.902;2022-08-18T13:42:12;9.67;;;9.03;;
17524;SDS011;40431;52.198;9.902;2022-08-18T13:44:38;11.90;;;9.07;;
17524;SDS011;40431;52.198;9.902;2022-08-18T13:47:06;10.43;;;9.57;;
17524;SDS011;40431;52.198;9.902;2022-08-18T13:49:32;9.67;;;8.97;;
17524;SDS011;40431;52.198;9.902;2022-08-18T13:51:58;9.27;;;8.47;;
17524;SDS011;40431;52.198;9.902;2022-08-18T13:54:26;10.17;;;9.37;;
17524;SDS011;40431;52.198;9.902;2022-08-18T13:56:55;10.73;;;9.87;;
17524;SDS011;40431;52.198;9.902;2022-08-18T13:59:23;10.43;;;9.80;;
17524;SDS011;40431;52.198;9.902;2022-08-18T14:01:55;9.50;;;8.87;;
17524;SDS011;40431;52.198;9.902;2022-08-18T14:04:23;9.77;;;9.07;;
17524;SDS011;40431;52.198;9.902;2022-08-18T14:06:49;10.60;;;9.90;;
17524;SDS011;40431;52.198;9.902;2022-08-18T14:09:16;9.13;;;8.43;;
17524;SDS011;40431;52.198;9.902;2022-08-18T14:11:43;9.37;;;8.67;;
17524;SDS011;40431;52.198;9.902;2022-08-18T14:14:11;9.37;;;8.77;;
17524;SDS011;40431;52.198;9.902;2022-08-18T14:16:39;9.07;;;8.47;;
17524;SDS011;40431;52.198;9.902;2022-08-18T14:19:06;9.73;;;9.13;;
17524;SDS011;40431;52.198;9.902;2022-08-18T14:21:51;9.87;;;9.17;;
17524;SDS011;40431;52.198;9.902;2022-08-18T14:24:37;10.23;;;9.33;;
17524;SDS011;40431;52.198;9.902;2022-08-18T14:27:24;9.73;;;9.13;;
17524;SDS011;40431;52.198;9.902;2022-08-18T14:29:53;10.47;;;9.87;;
17524;SDS011;40431;52.198;9.902;2022-08-18T14:32:21;10.13;;;9.53;;
17524;SDS011;40431;52.198;9.902;2022-08-18T14:34:51;11.10;;;10.20;;
17524;SDS011;40431;52.198;9.902;2022-08-18T14:37:17;10.10;;;9.30;;
17524;SDS011;40431;52.198;9.902;2022-08-18T14:39:44;10.33;;;9.73;;
17524;SDS011;40431;52.198;9.902;2022-08-18T14:42:11;10.57;;;9.87;;
17524;SDS011;40431;52.198;9.902;2022-08-18T14:44:40;10.63;;;10.03;;
17524;SDS011;40431;52.198;9.902;2022-08-18T14:47:06;10.67;;;9.77;;
17524;SDS011;40431;52.198;9.902;2022-08-18T14:49:34;11.47;;;10.73;;
17524;SDS011;40431;52.198;9.902;2022-08-18T14:52:01;12.43;;;11.53;;
17524;SDS011;40431;52.198;9.902;2022-08-18T14:54:28;11.53;;;10.53;;
17524;SDS011;40431;52.198;9.902;2022-08-18T14:56:56;11.43;;;10.63;;
17524;SDS011;40431;52.198;9.902;2022-08-18T14:59:23;11.90;;;11.20;;
17524;SDS011;40431;52.198;9.902;2022-08-18T15:01:52;11.03;;;10.30;;
17524;SDS011;40431;52.198;9.902;2022-08-18T15:04:19;11.20;;;10.50;;
17524;SDS011;40431;52.198;9.902;2022-08-18T15:06:47;10.40;;;9.77;;
17524;SDS011;40431;52.198;9.902;2022-08-18T15:09:14;11.10;;;10.30;;
17524;SDS011;40431;52.198;9.902;2022-08-18T15:11:41;10.13;;;9.33;;
17524;SDS011;40431;52.198;9.902;2022-08-18T15:14:08;9.30;;;8.60;;
17524;SDS011;40431;52.198;9.902;2022-08-18T15:16:34;9.60;;;9.00;;
17524;SDS011;40431;52.198;9.902;2022-08-18T15:19:02;9.13;;;8.27;;
17524;SDS011;40431;52.198;9.902;2022-08-18T15:21:29;8.93;;;8.33;;
17524;SDS011;40431;52.198;9.902;2022-08-18T15:24:15;8.77;;;7.87;;
17524;SDS011;40431;52.198;9.902;2022-08-18T15:26:59;8.20;;;7.63;;
17524;SDS011;40431;52.198;9.902;2022-08-18T15:29:27;7.83;;;7.23;;
17524;SDS011;40431;52.198;9.902;2022-08-18T15:31:54;8.27;;;7.67;;
17524;SDS011;40431;52.198;9.902;2022-08-18T15:34:20;8.20;;;7.57;;
17524;SDS011;40431;52.198;9.902;2022-08-18T15:36:47;8.97;;;8.37;;
17524;SDS011;40431;52.198;9.902;2022-08-18T15:39:15;9.73;;;8.93;;
17524;SDS011;40431;52.198;9.902;2022-08-18T15:41:42;9.63;;;8.83;;